sensor_id;sensor_type;location;lat;lon;timestamp;temperature;humidity
81935;DHT22;71405;47.674;-2.050;2023-11-21T00:00:00;18.50;61.80
81935;DHT22;71405;47.674;-2.050;2023-11-21T00:02:26;18.50;61.60
81935;DHT22;71405;47.674;-2.050;2023-11-21T00:04:55;18.50;61.70
81935;DHT22;71405;47.674;-2.050;2023-11-21T00:07:21;18.50;61.80
81935;DHT22;71405;47.674;-2.050;2023-11-21T00:09:46;18.50;61.70
81935;DHT22;71405;47.674;-2.050;2023-11-21T00:12:12;18.50;61.70
81935;DHT22;71405;47.674;-2.050;2023-11-21T00:14:39;18.50;61.70
81935;DHT22;71405;47.674;-2.050;2023-11-21T00:17:06;18.50;62.00
81935;DHT22;71405;47.674;-2.050;2023-11-21T00:19:32;18.50;61.90
81935;DHT22;71405;47.674;-2.050;2023-11-21T00:21:58;18.50;61.80
81935;DHT22;71405;47.674;-2.050;2023-11-21T00:24:25;18.50;61.70
81935;DHT22;71405;47.674;-2.050;2023-11-21T00:26:51;18.50;61.60
81935;DHT22;71405;47.674;-2.050;2023-11-21T00:29:17;18.50;61.60
81935;DHT22;71405;47.674;-2.050;2023-11-21T00:31:44;18.50;61.60
81935;DHT22;71405;47.674;-2.050;2023-11-21T00:34:12;18.50;61.50
81935;DHT22;71405;47.674;-2.050;2023-11-21T00:36:38;18.50;61.60
81935;DHT22;71405;47.674;-2.050;2023-11-21T00:39:04;18.50;61.60
81935;DHT22;71405;47.674;-2.050;2023-11-21T00:41:34;18.50;61.60
81935;DHT22;71405;47.674;-2.050;2023-11-21T00:44:01;18.50;61.60
81935;DHT22;71405;47.674;-2.050;2023-11-21T00:46:27;18.40;61.60
81935;DHT22;71405;47.674;-2.050;2023-11-21T00:48:54;18.50;61.60
81935;DHT22;71405;47.674;-2.050;2023-11-21T00:51:21;18.50;61.60
81935;DHT22;71405;47.674;-2.050;2023-11-21T00:53:47;18.50;61.60
81935;DHT22;71405;47.674;-2.050;2023-11-21T00:56:14;18.50;61.60
81935;DHT22;71405;47.674;-2.050;2023-11-21T00:58:40;18.50;61.80
81935;DHT22;71405;47.674;-2.050;2023-11-21T01:01:12;18.50;61.60
81935;DHT22;71405;47.674;-2.050;2023-11-21T01:03:37;18.50;61.60
81935;DHT22;71405;47.674;-2.050;2023-11-21T01:06:03;18.40;61.60
81935;DHT22;71405;47.674;-2.050;2023-11-21T01:08:32;18.50;61.60
81935;DHT22;71405;47.674;-2.050;2023-11-21T01:10:58;18.50;61.70
81935;DHT22;71405;47.674;-2.050;2023-11-21T01:13:24;18.50;61.60
81935;DHT22;71405;47.674;-2.050;2023-11-21T01:15:54;18.50;61.80
81935;DHT22;71405;47.674;-2.050;2023-11-21T01:18:20;18.50;61.70
81935;DHT22;71405;47.674;-2.050;2023-11-21T01:20:45;18.40;61.80
81935;DHT22;71405;47.674;-2.050;2023-11-21T01:23:13;18.50;61.60
81935;DHT22;71405;47.674;-2.050;2023-11-21T01:25:38;18.40;61.60
81935;DHT22;71405;47.674;-2.050;2023-11-21T01:28:04;18.40;61.70
81935;DHT22;71405;47.674;-2.050;2023-11-21T01:30:31;18.50;61.50
81935;DHT22;71405;47.674;-2.050;2023-11-21T01:32:58;18.40;61.50
81935;DHT22;71405;47.674;-2.050;2023-11-21T01:35:24;18.50;61.50
81935;DHT22;71405;47.674;-2.050;2023-11-21T01:37:49;18.50;61.90
81935;DHT22;71405;47.674;-2.050;2023-11-21T01:40:15;18.40;61.60
81935;DHT22;71405;47.674;-2.050;2023-11-21T01:42:41;18.40;61.80
81935;DHT22;71405;47.674;-2.050;2023-11-21T01:45:09;18.40;61.60
81935;DHT22;71405;47.674;-2.050;2023-11-21T01:47:35;18.40;61.60
81935;DHT22;71405;47.674;-2.050;2023-11-21T01:50:02;18.40;61.50
81935;DHT22;71405;47.674;-2.050;2023-11-21T01:52:30;18.50;61.50
81935;DHT22;71405;47.674;-2.050;2023-11-21T01:54:57;18.40;61.60
81935;DHT22;71405;47.674;-2.050;2023-11-21T01:57:24;18.40;61.50
81935;DHT22;71405;47.674;-2.050;2023-11-21T01:59:50;18.40;61.50
81935;DHT22;71405;47.674;-2.050;2023-11-21T02:02:19;18.40;61.50
81935;DHT22;71405;47.674;-2.050;2023-11-21T02:04:45;18.40;61.50
81935;DHT22;71405;47.674;-2.050;2023-11-21T02:07:10;18.40;61.40
81935;DHT22;71405;47.674;-2.050;2023-11-21T02:09:37;18.40;61.50
81935;DHT22;71405;47.674;-2.050;2023-11-21T02:12:08;18.40;61.50
81935;DHT22;71405;47.674;-2.050;2023-11-21T02:14:36;18.40;61.70
81935;DHT22;71405;47.674;-2.050;2023-11-21T02:17:02;18.40;61.40
81935;DHT22;71405;47.674;-2.050;2023-11-21T02:19:29;18.40;61.50
81935;DHT22;71405;47.674;-2.050;2023-11-21T02:21:59;18.40;61.40
81935;DHT22;71405;47.674;-2.050;2023-11-21T02:24:32;18.40;61.50
81935;DHT22;71405;47.674;-2.050;2023-11-21T02:26:58;18.40;61.60
81935;DHT22;71405;47.674;-2.050;2023-11-21T02:29:24;18.40;61.50
81935;DHT22;71405;47.674;-2.050;2023-11-21T02:31:54;18.40;61.50
81935;DHT22;71405;47.674;-2.050;2023-11-21T02:34:21;18.40;61.50
81935;DHT22;71405;47.674;-2.050;2023-11-21T02:36:47;18.40;61.40
81935;DHT22;71405;47.674;-2.050;2023-11-21T02:39:17;18.40;61.50
81935;DHT22;71405;47.674;-2.050;2023-11-21T02:41:43;18.40;61.40
81935;DHT22;71405;47.674;-2.050;2023-11-21T02:44:09;18.40;61.40
81935;DHT22;71405;47.674;-2.050;2023-11-21T02:46:36;18.40;61.30
81935;DHT22;71405;47.674;-2.050;2023-11-21T02:49:03;18.40;61.40
81935;DHT22;71405;47.674;-2.050;2023-11-21T02:51:29;18.40;61.50
81935;DHT22;71405;47.674;-2.050;2023-11-21T02:53:56;18.40;61.30
81935;DHT22;71405;47.674;-2.050;2023-11-21T02:56:26;18.40;61.30
81935;DHT22;71405;47.674;-2.050;2023-11-21T02:58:52;18.40;61.40
81935;DHT22;71405;47.674;-2.050;2023-11-21T03:01:17;18.40;61.30
81935;DHT22;71405;47.674;-2.050;2023-11-21T03:03:43;18.40;61.30
81935;DHT22;71405;47.674;-2.050;2023-11-21T03:06:09;18.40;61.30
81935;DHT22;71405;47.674;-2.050;2023-11-21T03:08:35;18.40;61.30
81935;DHT22;71405;47.674;-2.050;2023-11-21T03:11:01;18.40;61.30
81935;DHT22;71405;47.674;-2.050;2023-11-21T03:13:28;18.40;61.30
81935;DHT22;71405;47.674;-2.050;2023-11-21T03:15:54;18.40;61.30
81935;DHT22;71405;47.674;-2.050;2023-11-21T03:18:20;18.40;61.30
81935;DHT22;71405;47.674;-2.050;2023-11-21T03:20:47;18.40;61.20
81935;DHT22;71405;47.674;-2.050;2023-11-21T03:23:13;18.40;61.30
81935;DHT22;71405;47.674;-2.050;2023-11-21T03:25:39;18.40;61.30
81935;DHT22;71405;47.674;-2.050;2023-11-21T03:28:04;18.40;61.20
81935;DHT22;71405;47.674;-2.050;2023-11-21T03:30:30;18.40;61.30
81935;DHT22;71405;47.674;-2.050;2023-11-21T03:32:56;18.30;61.30
81935;DHT22;71405;47.674;-2.050;2023-11-21T03:35:22;18.40;61.20
81935;DHT22;71405;47.674;-2.050;2023-11-21T03:37:47;18.40;61.20
81935;DHT22;71405;47.674;-2.050;2023-11-21T03:40:13;18.40;61.20
81935;DHT22;71405;47.674;-2.050;2023-11-21T03:42:39;18.40;61.10
81935;DHT22;71405;47.674;-2.050;2023-11-21T03:45:06;18.40;61.30
81935;DHT22;71405;47.674;-2.050;2023-11-21T03:47:31;18.40;61.20
81935;DHT22;71405;47.674;-2.050;2023-11-21T03:49:57;18.30;61.10
81935;DHT22;71405;47.674;-2.050;2023-11-21T03:52:24;18.30;61.20
81935;DHT22;71405;47.674;-2.050;2023-11-21T03:54:50;18.30;61.10
81935;DHT22;71405;47.674;-2.050;2023-11-21T03:57:15;18.40;61.10
81935;DHT22;71405;47.674;-2.050;2023-11-21T03:59:42;18.30;61.20
81935;DHT22;71405;47.674;-2.050;2023-11-21T04:02:08;18.30;61.30
81935;DHT22;71405;47.674;-2.050;2023-11-21T04:04:35;18.30;61.20
81935;DHT22;71405;47.674;-2.050;2023-11-21T04:07:00;18.40;61.20
81935;DHT22;71405;47.674;-2.050;2023-11-21T04:09:26;18.30;61.30
81935;DHT22;71405;47.674;-2.050;2023-11-21T04:11:52;18.30;61.20
81935;DHT22;71405;47.674;-2.050;2023-11-21T04:14:19;18.30;61.20
81935;DHT22;71405;47.674;-2.050;2023-11-21T04:16:45;18.30;61.20
81935;DHT22;71405;47.674;-2.050;2023-11-21T04:19:11;18.30;61.10
81935;DHT22;71405;47.674;-2.050;2023-11-21T04:21:40;18.30;61.20
81935;DHT22;71405;47.674;-2.050;2023-11-21T04:24:06;18.30;61.30
81935;DHT22;71405;47.674;-2.050;2023-11-21T04:26:32;18.30;61.30
81935;DHT22;71405;47.674;-2.050;2023-11-21T04:28:58;18.30;61.20
81935;DHT22;71405;47.674;-2.050;2023-11-21T04:31:24;18.30;61.10
81935;DHT22;71405;47.674;-2.050;2023-11-21T04:33:49;18.30;61.20
81935;DHT22;71405;47.674;-2.050;2023-11-21T04:36:15;18.30;61.20
81935;DHT22;71405;47.674;-2.050;2023-11-21T04:38:41;18.30;61.30
81935;DHT22;71405;47.674;-2.050;2023-11-21T04:41:07;18.30;61.30
81935;DHT22;71405;47.674;-2.050;2023-11-21T04:43:33;18.30;61.30
81935;DHT22;71405;47.674;-2.050;2023-11-21T04:45:58;18.30;61.50
81935;DHT22;71405;47.674;-2.050;2023-11-21T04:48:24;18.30;61.20
81935;DHT22;71405;47.674;-2.050;2023-11-21T04:50:50;18.30;61.30
81935;DHT22;71405;47.674;-2.050;2023-11-21T04:53:17;18.30;61.20
81935;DHT22;71405;47.674;-2.050;2023-11-21T04:55:42;18.30;61.20
81935;DHT22;71405;47.674;-2.050;2023-11-21T04:58:09;18.30;61.30
81935;DHT22;71405;47.674;-2.050;2023-11-21T05:00:36;18.30;61.20
81935;DHT22;71405;47.674;-2.050;2023-11-21T05:03:03;18.30;61.20
81935;DHT22;71405;47.674;-2.050;2023-11-21T05:05:29;18.30;61.20
81935;DHT22;71405;47.674;-2.050;2023-11-21T05:07:58;18.30;61.40
81935;DHT22;71405;47.674;-2.050;2023-11-21T05:10:23;18.30;61.40
81935;DHT22;71405;47.674;-2.050;2023-11-21T05:12:49;18.30;61.40
81935;DHT22;71405;47.674;-2.050;2023-11-21T05:15:16;18.30;61.40
81935;DHT22;71405;47.674;-2.050;2023-11-21T05:17:43;18.30;61.30
81935;DHT22;71405;47.674;-2.050;2023-11-21T05:20:13;18.30;61.40
81935;DHT22;71405;47.674;-2.050;2023-11-21T05:22:40;18.30;61.30
81935;DHT22;71405;47.674;-2.050;2023-11-21T05:25:06;18.30;61.20
81935;DHT22;71405;47.674;-2.050;2023-11-21T05:27:36;18.30;61.30
81935;DHT22;71405;47.674;-2.050;2023-11-21T05:30:03;18.30;61.30
81935;DHT22;71405;47.674;-2.050;2023-11-21T05:32:31;18.30;61.40
81935;DHT22;71405;47.674;-2.050;2023-11-21T05:34:56;18.30;61.30
81935;DHT22;71405;47.674;-2.050;2023-11-21T05:37:22;18.30;61.30
81935;DHT22;71405;47.674;-2.050;2023-11-21T05:39:49;18.30;61.30
81935;DHT22;71405;47.674;-2.050;2023-11-21T05:42:14;18.30;61.30
81935;DHT22;71405;47.674;-2.050;2023-11-21T05:44:43;18.30;61.20
81935;DHT22;71405;47.674;-2.050;2023-11-21T05:47:09;18.30;61.30
81935;DHT22;71405;47.674;-2.050;2023-11-21T05:49:36;18.30;61.30
81935;DHT22;71405;47.674;-2.050;2023-11-21T05:52:02;18.30;61.20
81935;DHT22;71405;47.674;-2.050;2023-11-21T05:54:28;18.30;61.10
81935;DHT22;71405;47.674;-2.050;2023-11-21T05:56:54;18.30;61.10
81935;DHT22;71405;47.674;-2.050;2023-11-21T05:59:20;18.30;61.10
81935;DHT22;71405;47.674;-2.050;2023-11-21T06:01:46;18.30;61.20
81935;DHT22;71405;47.674;-2.050;2023-11-21T06:04:11;18.30;61.20
81935;DHT22;71405;47.674;-2.050;2023-11-21T06:06:38;18.30;61.20
81935;DHT22;71405;47.674;-2.050;2023-11-21T06:09:04;18.40;61.30
81935;DHT22;71405;47.674;-2.050;2023-11-21T06:11:31;18.40;61.30
81935;DHT22;71405;47.674;-2.050;2023-11-21T06:13:57;18.40;61.30
81935;DHT22;71405;47.674;-2.050;2023-11-21T06:16:23;18.40;61.30
81935;DHT22;71405;47.674;-2.050;2023-11-21T06:18:49;18.40;61.30
81935;DHT22;71405;47.674;-2.050;2023-11-21T06:21:15;18.40;61.30
81935;DHT22;71405;47.674;-2.050;2023-11-21T06:23:42;18.40;61.30
81935;DHT22;71405;47.674;-2.050;2023-11-21T06:26:08;18.40;61.30
81935;DHT22;71405;47.674;-2.050;2023-11-21T06:28:35;18.40;61.20
81935;DHT22;71405;47.674;-2.050;2023-11-21T06:31:01;18.40;61.20
81935;DHT22;71405;47.674;-2.050;2023-11-21T06:33:31;18.50;61.20
81935;DHT22;71405;47.674;-2.050;2023-11-21T06:35:57;18.50;61.20
81935;DHT22;71405;47.674;-2.050;2023-11-21T06:38:23;18.50;61.30
81935;DHT22;71405;47.674;-2.050;2023-11-21T06:40:48;18.50;61.30
81935;DHT22;71405;47.674;-2.050;2023-11-21T06:43:14;18.50;61.40
81935;DHT22;71405;47.674;-2.050;2023-11-21T06:45:40;18.50;61.30
81935;DHT22;71405;47.674;-2.050;2023-11-21T06:48:06;18.50;61.10
81935;DHT22;71405;47.674;-2.050;2023-11-21T06:50:32;18.40;60.60
81935;DHT22;71405;47.674;-2.050;2023-11-21T06:52:57;18.30;60.10
81935;DHT22;71405;47.674;-2.050;2023-11-21T06:55:23;18.30;60.70
81935;DHT22;71405;47.674;-2.050;2023-11-21T06:57:49;18.30;61.00
81935;DHT22;71405;47.674;-2.050;2023-11-21T07:00:16;18.30;61.00
81935;DHT22;71405;47.674;-2.050;2023-11-21T07:02:43;18.40;60.90
81935;DHT22;71405;47.674;-2.050;2023-11-21T07:05:09;18.40;60.90
81935;DHT22;71405;47.674;-2.050;2023-11-21T07:07:35;18.40;60.90
81935;DHT22;71405;47.674;-2.050;2023-11-21T07:10:02;18.40;60.90
81935;DHT22;71405;47.674;-2.050;2023-11-21T07:12:30;18.40;60.90
81935;DHT22;71405;47.674;-2.050;2023-11-21T07:14:56;18.40;60.80
81935;DHT22;71405;47.674;-2.050;2023-11-21T07:17:22;18.40;60.80
81935;DHT22;71405;47.674;-2.050;2023-11-21T07:19:48;18.40;61.20
81935;DHT22;71405;47.674;-2.050;2023-11-21T07:22:15;18.40;62.20
81935;DHT22;71405;47.674;-2.050;2023-11-21T07:24:48;18.40;62.80
81935;DHT22;71405;47.674;-2.050;2023-11-21T07:27:16;18.40;63.20
81935;DHT22;71405;47.674;-2.050;2023-11-21T07:29:42;18.40;63.30
81935;DHT22;71405;47.674;-2.050;2023-11-21T07:32:08;18.40;63.60
81935;DHT22;71405;47.674;-2.050;2023-11-21T07:34:35;18.40;63.40
81935;DHT22;71405;47.674;-2.050;2023-11-21T07:37:01;18.40;63.50
81935;DHT22;71405;47.674;-2.050;2023-11-21T07:39:28;18.40;63.10
81935;DHT22;71405;47.674;-2.050;2023-11-21T07:41:54;18.40;63.10
81935;DHT22;71405;47.674;-2.050;2023-11-21T07:44:19;18.40;63.10
81935;DHT22;71405;47.674;-2.050;2023-11-21T07:46:46;18.40;63.10
81935;DHT22;71405;47.674;-2.050;2023-11-21T07:49:12;18.40;62.90
81935;DHT22;71405;47.674;-2.050;2023-11-21T07:51:43;18.40;62.90
81935;DHT22;71405;47.674;-2.050;2023-11-21T07:54:09;18.40;63.00
81935;DHT22;71405;47.674;-2.050;2023-11-21T07:56:35;18.40;62.90
81935;DHT22;71405;47.674;-2.050;2023-11-21T07:59:01;18.40;62.80
81935;DHT22;71405;47.674;-2.050;2023-11-21T08:01:27;18.40;62.90
81935;DHT22;71405;47.674;-2.050;2023-11-21T08:03:54;18.40;62.80
81935;DHT22;71405;47.674;-2.050;2023-11-21T08:06:25;18.40;62.80
81935;DHT22;71405;47.674;-2.050;2023-11-21T08:08:51;18.40;62.70
81935;DHT22;71405;47.674;-2.050;2023-11-21T08:11:17;18.40;62.70
81935;DHT22;71405;47.674;-2.050;2023-11-21T08:13:42;18.40;62.90
81935;DHT22;71405;47.674;-2.050;2023-11-21T08:16:08;18.40;62.80
81935;DHT22;71405;47.674;-2.050;2023-11-21T08:18:34;18.40;62.70
81935;DHT22;71405;47.674;-2.050;2023-11-21T08:20:59;18.40;62.70
81935;DHT22;71405;47.674;-2.050;2023-11-21T08:23:25;18.40;62.60
81935;DHT22;71405;47.674;-2.050;2023-11-21T08:25:52;18.30;62.20
81935;DHT22;71405;47.674;-2.050;2023-11-21T08:28:19;18.30;61.90
81935;DHT22;71405;47.674;-2.050;2023-11-21T08:30:45;18.30;62.60
81935;DHT22;71405;47.674;-2.050;2023-11-21T08:33:10;18.30;62.40
81935;DHT22;71405;47.674;-2.050;2023-11-21T08:35:39;18.30;62.20
81935;DHT22;71405;47.674;-2.050;2023-11-21T08:38:04;18.30;62.10
81935;DHT22;71405;47.674;-2.050;2023-11-21T08:40:30;18.30;62.00
81935;DHT22;71405;47.674;-2.050;2023-11-21T08:42:57;18.30;62.00
81935;DHT22;71405;47.674;-2.050;2023-11-21T08:45:24;18.40;62.00
81935;DHT22;71405;47.674;-2.050;2023-11-21T08:47:51;18.40;62.00
81935;DHT22;71405;47.674;-2.050;2023-11-21T08:50:17;18.40;61.90
81935;DHT22;71405;47.674;-2.050;2023-11-21T08:52:44;18.40;61.90
81935;DHT22;71405;47.674;-2.050;2023-11-21T08:55:11;18.40;61.90
81935;DHT22;71405;47.674;-2.050;2023-11-21T08:57:39;18.40;61.90
81935;DHT22;71405;47.674;-2.050;2023-11-21T09:00:07;18.40;62.00
81935;DHT22;71405;47.674;-2.050;2023-11-21T09:02:41;18.40;62.00
81935;DHT22;71405;47.674;-2.050;2023-11-21T09:05:10;18.40;62.10
81935;DHT22;71405;47.674;-2.050;2023-11-21T09:07:38;18.40;62.10
81935;DHT22;71405;47.674;-2.050;2023-11-21T09:10:04;18.40;62.00
81935;DHT22;71405;47.674;-2.050;2023-11-21T09:12:31;18.40;62.00
81935;DHT22;71405;47.674;-2.050;2023-11-21T09:14:58;18.40;61.90
81935;DHT22;71405;47.674;-2.050;2023-11-21T09:17:23;18.40;62.00
81935;DHT22;71405;47.674;-2.050;2023-11-21T09:19:49;18.40;61.90
81935;DHT22;71405;47.674;-2.050;2023-11-21T09:22:16;18.40;62.00
81935;DHT22;71405;47.674;-2.050;2023-11-21T09:24:41;18.40;61.90
81935;DHT22;71405;47.674;-2.050;2023-11-21T09:27:08;18.40;61.90
81935;DHT22;71405;47.674;-2.050;2023-11-21T09:29:35;18.40;61.90
81935;DHT22;71405;47.674;-2.050;2023-11-21T09:32:00;18.40;62.00
81935;DHT22;71405;47.674;-2.050;2023-11-21T09:34:27;18.40;62.00
81935;DHT22;71405;47.674;-2.050;2023-11-21T09:36:52;18.40;61.80
81935;DHT22;71405;47.674;-2.050;2023-11-21T09:39:19;18.40;61.90
81935;DHT22;71405;47.674;-2.050;2023-11-21T09:41:51;18.40;61.90
81935;DHT22;71405;47.674;-2.050;2023-11-21T09:44:35;18.40;61.90
81935;DHT22;71405;47.674;-2.050;2023-11-21T09:47:02;18.40;61.90
81935;DHT22;71405;47.674;-2.050;2023-11-21T09:49:28;18.40;62.00
81935;DHT22;71405;47.674;-2.050;2023-11-21T09:51:58;18.40;61.90
81935;DHT22;71405;47.674;-2.050;2023-11-21T09:54:29;18.40;62.00
81935;DHT22;71405;47.674;-2.050;2023-11-21T09:56:59;18.40;61.90
81935;DHT22;71405;47.674;-2.050;2023-11-21T09:59:30;18.40;61.80
81935;DHT22;71405;47.674;-2.050;2023-11-21T10:01:59;18.40;61.90
81935;DHT22;71405;47.674;-2.050;2023-11-21T10:04:25;18.40;61.90
81935;DHT22;71405;47.674;-2.050;2023-11-21T10:06:53;18.40;62.00
81935;DHT22;71405;47.674;-2.050;2023-11-21T10:09:19;18.40;61.90
81935;DHT22;71405;47.674;-2.050;2023-11-21T10:11:47;18.40;62.00
81935;DHT22;71405;47.674;-2.050;2023-11-21T10:14:16;18.40;61.90
81935;DHT22;71405;47.674;-2.050;2023-11-21T10:16:45;18.40;61.90
81935;DHT22;71405;47.674;-2.050;2023-11-21T10:19:13;18.40;61.80
81935;DHT22;71405;47.674;-2.050;2023-11-21T10:21:42;18.50;61.90
81935;DHT22;71405;47.674;-2.050;2023-11-21T10:24:08;18.40;61.90
81935;DHT22;71405;47.674;-2.050;2023-11-21T10:26:34;18.40;61.90
81935;DHT22;71405;47.674;-2.050;2023-11-21T10:29:02;18.40;61.90
81935;DHT22;71405;47.674;-2.050;2023-11-21T10:31:31;18.50;61.90
81935;DHT22;71405;47.674;-2.050;2023-11-21T10:34:17;18.40;61.80
81935;DHT22;71405;47.674;-2.050;2023-11-21T10:36:43;18.40;61.90
81935;DHT22;71405;47.674;-2.050;2023-11-21T10:39:13;18.40;61.90
81935;DHT22;71405;47.674;-2.050;2023-11-21T10:41:39;18.50;61.80
81935;DHT22;71405;47.674;-2.050;2023-11-21T10:44:05;18.50;61.80
81935;DHT22;71405;47.674;-2.050;2023-11-21T10:46:34;18.40;61.80
81935;DHT22;71405;47.674;-2.050;2023-11-21T10:49:00;18.50;61.90
81935;DHT22;71405;47.674;-2.050;2023-11-21T10:51:27;18.40;61.80
81935;DHT22;71405;47.674;-2.050;2023-11-21T10:53:54;18.50;61.80
81935;DHT22;71405;47.674;-2.050;2023-11-21T10:56:23;18.50;61.70
81935;DHT22;71405;47.674;-2.050;2023-11-21T10:58:50;18.40;61.80
81935;DHT22;71405;47.674;-2.050;2023-11-21T11:01:19;18.50;61.70
81935;DHT22;71405;47.674;-2.050;2023-11-21T11:03:50;18.50;61.90
81935;DHT22;71405;47.674;-2.050;2023-11-21T11:06:16;18.50;61.80
81935;DHT22;71405;47.674;-2.050;2023-11-21T11:08:42;18.50;61.80
81935;DHT22;71405;47.674;-2.050;2023-11-21T11:11:09;18.50;61.80
81935;DHT22;71405;47.674;-2.050;2023-11-21T11:13:35;18.50;61.70
81935;DHT22;71405;47.674;-2.050;2023-11-21T11:16:03;18.50;61.70
81935;DHT22;71405;47.674;-2.050;2023-11-21T11:18:32;18.50;61.80
81935;DHT22;71405;47.674;-2.050;2023-11-21T11:21:15;18.50;61.80
81935;DHT22;71405;47.674;-2.050;2023-11-21T11:26:56;18.50;61.70
81935;DHT22;71405;47.674;-2.050;2023-11-21T11:29:56;18.50;61.70
81935;DHT22;71405;47.674;-2.050;2023-11-21T11:32:48;18.50;61.70
81935;DHT22;71405;47.674;-2.050;2023-11-21T11:37:54;18.60;61.70
81935;DHT22;71405;47.674;-2.050;2023-11-21T11:40:20;18.60;61.70
81935;DHT22;71405;47.674;-2.050;2023-11-21T11:43:00;18.60;61.60
81935;DHT22;71405;47.674;-2.050;2023-11-21T11:45:33;18.60;61.70
81935;DHT22;71405;47.674;-2.050;2023-11-21T11:48:02;18.60;61.80
81935;DHT22;71405;47.674;-2.050;2023-11-21T11:50:29;18.60;61.60
81935;DHT22;71405;47.674;-2.050;2023-11-21T11:53:12;18.60;61.60
81935;DHT22;71405;47.674;-2.050;2023-11-21T11:55:38;18.60;61.70
81935;DHT22;71405;47.674;-2.050;2023-11-21T11:58:06;18.60;61.70
81935;DHT22;71405;47.674;-2.050;2023-11-21T12:03:01;18.60;61.70
81935;DHT22;71405;47.674;-2.050;2023-11-21T12:05:32;18.60;61.70
81935;DHT22;71405;47.674;-2.050;2023-11-21T12:08:01;18.60;61.60
81935;DHT22;71405;47.674;-2.050;2023-11-21T12:10:28;18.60;61.80
81935;DHT22;71405;47.674;-2.050;2023-11-21T12:12:58;18.60;61.70
81935;DHT22;71405;47.674;-2.050;2023-11-21T12:15:25;18.60;61.70
81935;DHT22;71405;47.674;-2.050;2023-11-21T12:17:51;18.60;61.60
81935;DHT22;71405;47.674;-2.050;2023-11-21T12:20:22;18.60;61.60
81935;DHT22;71405;47.674;-2.050;2023-11-21T12:22:59;18.60;61.70
81935;DHT22;71405;47.674;-2.050;2023-11-21T12:25:27;18.60;61.60
81935;DHT22;71405;47.674;-2.050;2023-11-21T12:27:58;18.60;61.70
81935;DHT22;71405;47.674;-2.050;2023-11-21T12:30:29;18.60;61.70
81935;DHT22;71405;47.674;-2.050;2023-11-21T12:32:59;18.60;61.60
81935;DHT22;71405;47.674;-2.050;2023-11-21T12:35:32;18.60;61.60
81935;DHT22;71405;47.674;-2.050;2023-11-21T12:38:03;18.60;61.60
81935;DHT22;71405;47.674;-2.050;2023-11-21T12:40:30;18.60;61.70
81935;DHT22;71405;47.674;-2.050;2023-11-21T12:43:00;18.60;61.70
81935;DHT22;71405;47.674;-2.050;2023-11-21T12:45:27;18.60;61.70
81935;DHT22;71405;47.674;-2.050;2023-11-21T12:47:58;18.60;61.60
81935;DHT22;71405;47.674;-2.050;2023-11-21T12:50:30;18.60;61.50
81935;DHT22;71405;47.674;-2.050;2023-11-21T12:53:08;18.60;61.60
81935;DHT22;71405;47.674;-2.050;2023-11-21T12:55:35;18.60;61.60
81935;DHT22;71405;47.674;-2.050;2023-11-21T12:58:04;18.60;61.60
81935;DHT22;71405;47.674;-2.050;2023-11-21T13:00:38;18.60;61.60
81935;DHT22;71405;47.674;-2.050;2023-11-21T13:03:05;18.60;61.70
81935;DHT22;71405;47.674;-2.050;2023-11-21T13:05:36;18.60;61.70
81935;DHT22;71405;47.674;-2.050;2023-11-21T13:08:06;18.60;61.60
81935;DHT22;71405;47.674;-2.050;2023-11-21T13:10:41;18.60;61.70
81935;DHT22;71405;47.674;-2.050;2023-11-21T13:13:10;18.60;61.60
81935;DHT22;71405;47.674;-2.050;2023-11-21T13:15:54;18.60;61.60
81935;DHT22;71405;47.674;-2.050;2023-11-21T13:18:24;18.60;61.60
81935;DHT22;71405;47.674;-2.050;2023-11-21T13:20:50;18.60;61.60
81935;DHT22;71405;47.674;-2.050;2023-11-21T13:23:16;18.60;61.60
81935;DHT22;71405;47.674;-2.050;2023-11-21T13:25:42;18.60;61.50
81935;DHT22;71405;47.674;-2.050;2023-11-21T13:28:11;18.60;61.50
81935;DHT22;71405;47.674;-2.050;2023-11-21T13:30:37;18.60;61.50
81935;DHT22;71405;47.674;-2.050;2023-11-21T13:33:06;18.60;61.60
81935;DHT22;71405;47.674;-2.050;2023-11-21T13:35:39;18.60;61.60
81935;DHT22;71405;47.674;-2.050;2023-11-21T13:38:13;18.60;61.50
81935;DHT22;71405;47.674;-2.050;2023-11-21T13:40:40;18.60;61.60
81935;DHT22;71405;47.674;-2.050;2023-11-21T13:43:10;18.60;61.60
81935;DHT22;71405;47.674;-2.050;2023-11-21T13:45:37;18.60;61.60
81935;DHT22;71405;47.674;-2.050;2023-11-21T13:48:05;18.60;61.60
81935;DHT22;71405;47.674;-2.050;2023-11-21T13:50:38;18.60;61.70
81935;DHT22;71405;47.674;-2.050;2023-11-21T13:53:04;18.60;61.70
81935;DHT22;71405;47.674;-2.050;2023-11-21T13:55:44;18.60;61.70
81935;DHT22;71405;47.674;-2.050;2023-11-21T13:58:11;18.60;61.60
81935;DHT22;71405;47.674;-2.050;2023-11-21T14:00:43;18.60;61.70
81935;DHT22;71405;47.674;-2.050;2023-11-21T14:03:12;18.60;61.60
81935;DHT22;71405;47.674;-2.050;2023-11-21T14:05:48;18.60;61.60
81935;DHT22;71405;47.674;-2.050;2023-11-21T14:08:20;18.60;61.60
81935;DHT22;71405;47.674;-2.050;2023-11-21T14:10:49;18.60;61.70
81935;DHT22;71405;47.674;-2.050;2023-11-21T14:13:26;18.60;61.70
81935;DHT22;71405;47.674;-2.050;2023-11-21T14:15:52;18.60;61.60
81935;DHT22;71405;47.674;-2.050;2023-11-21T14:18:27;18.60;61.60
81935;DHT22;71405;47.674;-2.050;2023-11-21T14:20:59;18.50;61.60
81935;DHT22;71405;47.674;-2.050;2023-11-21T14:23:25;18.50;61.70
81935;DHT22;71405;47.674;-2.050;2023-11-21T14:25:51;18.60;61.70
81935;DHT22;71405;47.674;-2.050;2023-11-21T14:28:17;18.50;61.70
81935;DHT22;71405;47.674;-2.050;2023-11-21T14:30:45;18.50;61.60
81935;DHT22;71405;47.674;-2.050;2023-11-21T14:33:12;18.50;61.80
81935;DHT22;71405;47.674;-2.050;2023-11-21T14:35:37;18.50;61.60
81935;DHT22;71405;47.674;-2.050;2023-11-21T14:38:03;18.50;61.60
81935;DHT22;71405;47.674;-2.050;2023-11-21T14:40:33;18.50;61.70
81935;DHT22;71405;47.674;-2.050;2023-11-21T14:43:01;18.50;61.80
81935;DHT22;71405;47.674;-2.050;2023-11-21T14:45:27;18.50;61.70
81935;DHT22;71405;47.674;-2.050;2023-11-21T14:47:54;18.50;61.60
81935;DHT22;71405;47.674;-2.050;2023-11-21T14:50:33;18.50;61.70
81935;DHT22;71405;47.674;-2.050;2023-11-21T14:53:35;18.50;61.80
81935;DHT22;71405;47.674;-2.050;2023-11-21T14:56:22;18.50;61.80
81935;DHT22;71405;47.674;-2.050;2023-11-21T14:58:59;18.50;61.80
81935;DHT22;71405;47.674;-2.050;2023-11-21T15:01:53;18.50;61.70
81935;DHT22;71405;47.674;-2.050;2023-11-21T15:04:22;18.50;61.70
81935;DHT22;71405;47.674;-2.050;2023-11-21T15:07:05;18.50;61.80
81935;DHT22;71405;47.674;-2.050;2023-11-21T15:09:31;18.50;61.80
81935;DHT22;71405;47.674;-2.050;2023-11-21T15:11:57;18.50;61.80
81935;DHT22;71405;47.674;-2.050;2023-11-21T15:14:29;18.50;61.60
81935;DHT22;71405;47.674;-2.050;2023-11-21T15:17:00;18.50;61.70
81935;DHT22;71405;47.674;-2.050;2023-11-21T15:19:26;18.50;61.70
81935;DHT22;71405;47.674;-2.050;2023-11-21T15:21:53;18.50;61.70
81935;DHT22;71405;47.674;-2.050;2023-11-21T15:24:19;18.50;61.60
81935;DHT22;71405;47.674;-2.050;2023-11-21T15:26:45;18.50;61.70